Time;durP1;ratioP1;P1;durP2;ratioP2;P2;SDS_P1;SDS_P2;PMS_P1;PMS_P2;Temp;Humidity;BMP_temperature;BMP_pressure;BME280_temperature;BME280_humidity;BME280_pressure;Samples;Min_cycle;Max_cycle;Signal;HPM_P1;HPM_P2
2021/05/04 02:46:02;;;;;;;9.27;6.70;;;7.60;81.60;;;;;;5543220;23;20367;-68
2021/05/04 02:48:28;;;;;;;12.50;7.07;;;7.60;81.30;;;;;;4876925;29;20044;-69
2021/05/04 02:50:54;;;;;;;10.25;7.32;;;7.60;81.70;;;;;;4872136;29;20029;-70
2021/05/04 02:53:20;;;;;;;11.67;8.10;;;7.50;81.50;;;;;;4889050;29;20032;-70
2021/05/04 02:55:47;;;;;;;8.63;6.10;;;7.60;81.60;;;;;;4888601;29;20057;-70
2021/05/04 02:58:13;;;;;;;11.17;7.80;;;7.50;81.70;;;;;;4888830;29;20312;-70
2021/05/04 03:00:39;;;;;;;10.15;6.90;;;7.50;81.70;;;;;;4888871;29;20270;-70
2021/05/04 03:03:04;;;;;;;10.07;7.07;;;7.50;81.60;;;;;;4888902;29;20069;-70
2021/05/04 03:05:30;;;;;;;10.38;7.32;;;7.50;81.80;;;;;;4888518;29;20029;-68
2021/05/04 03:07:56;;;;;;;10.27;7.53;;;7.40;81.90;;;;;;4875838;29;20308;-70
2021/05/04 03:10:22;;;;;;;12.20;7.38;;;7.40;82.00;;;;;;4878479;29;20073;-70
2021/05/04 03:12:48;;;;;;;10.77;7.70;;;7.40;82.20;;;;;;4888816;29;20085;-70
2021/05/04 03:15:14;;;;;;;10.65;8.18;;;7.40;82.10;;;;;;4888585;29;20029;-69
2021/05/04 03:17:40;;;;;;;12.15;7.57;;;7.40;82.00;;;;;;4873643;29;20044;-70
2021/05/04 03:20:06;;;;;;;12.02;7.78;;;7.40;82.30;;;;;;4888757;29;20202;-70
2021/05/04 03:22:32;;;;;;;13.05;8.57;;;7.30;82.50;;;;;;4882366;29;20028;-70
2021/05/04 03:24:57;;;;;;;13.73;8.43;;;7.30;82.50;;;;;;4888458;29;20368;-70
2021/05/04 03:27:23;;;;;;;10.88;7.25;;;7.30;82.70;;;;;;4888415;29;20064;-67
2021/05/04 03:29:49;;;;;;;10.65;7.93;;;7.30;82.70;;;;;;4872311;29;20192;-70
2021/05/04 03:32:15;;;;;;;13.75;8.43;;;7.30;82.90;;;;;;4881353;29;20025;-70
2021/05/04 03:34:40;;;;;;;12.50;7.90;;;7.30;83.00;;;;;;4888560;29;20053;-70
2021/05/04 03:37:06;;;;;;;10.77;8.38;;;7.30;83.30;;;;;;4888371;29;20320;-67
2021/05/04 03:39:32;;;;;;;12.52;8.75;;;7.30;83.20;;;;;;4888172;29;20071;-68
2021/05/04 03:41:57;;;;;;;10.82;8.00;;;7.30;83.40;;;;;;4884476;29;20100;-68
2021/05/04 03:44:23;;;;;;;13.15;9.07;;;7.30;83.40;;;;;;4889721;29;20021;-70
2021/05/04 03:46:49;;;;;;;11.30;8.48;;;7.30;83.80;;;;;;4898331;29;20244;-70
2021/05/04 03:49:15;;;;;;;13.07;9.30;;;7.30;84.00;;;;;;4900254;29;20076;-70
2021/05/04 03:51:40;;;;;;;13.20;9.43;;;7.30;84.10;;;;;;4902682;29;20017;-68
2021/05/04 03:54:07;;;;;;;22.33;12.23;;;7.30;84.20;;;;;;4882470;29;20032;-70
2021/05/04 03:56:32;;;;;;;13.43;10.10;;;7.30;84.50;;;;;;4900299;29;20331;-70
2021/05/04 03:58:58;;;;;;;16.25;10.00;;;7.30;84.60;;;;;;4881047;29;20024;-68
2021/05/04 04:01:24;;;;;;;12.88;8.85;;;7.40;84.90;;;;;;4882791;29;20037;-70
2021/05/04 04:03:50;;;;;;;15.25;9.65;;;7.40;84.90;;;;;;4900538;29;20088;-70
2021/05/04 04:06:16;;;;;;;16.45;9.95;;;7.40;85.10;;;;;;4881653;29;20248;-70
2021/05/04 04:08:43;;;;;;;15.57;9.65;;;7.40;85.30;;;;;;4899924;29;20021;-70
2021/05/04 04:11:08;;;;;;;13.23;9.90;;;7.50;85.50;;;;;;4882259;29;20044;-70
2021/05/04 04:13:34;;;;;;;14.65;9.05;;;7.50;85.70;;;;;;4882402;29;20313;-71
2021/05/04 04:16:00;;;;;;;15.40;9.98;;;7.60;86.00;;;;;;4900936;29;20032;-70
2021/05/04 04:18:26;;;;;;;16.25;10.40;;;7.60;86.10;;;;;;4882461;29;20029;-70
2021/05/04 04:20:52;;;;;;;11.48;8.80;;;7.70;86.50;;;;;;4898760;29;20039;-70
2021/05/04 04:23:18;;;;;;;15.30;10.05;;;7.70;86.70;;;;;;4899221;29;20017;-70
2021/05/04 04:25:44;;;;;;;21.10;10.07;;;7.70;86.90;;;;;;4896198;29;20063;-69
2021/05/04 04:28:10;;;;;;;18.50;9.27;;;7.80;86.70;;;;;;4880787;29;20269;-70
2021/05/04 04:30:35;;;;;;;16.10;10.43;;;7.80;86.90;;;;;;4877194;29;20456;-70
2021/05/04 04:33:01;;;;;;;19.38;10.43;;;7.80;87.30;;;;;;4890398;29;20037;-70
2021/05/04 04:35:27;;;;;;;22.23;10.85;;;7.90;87.40;;;;;;4876121;29;20316;-70
2021/05/04 04:37:53;;;;;;;24.83;11.45;;;7.90;87.70;;;;;;4869996;29;20340;-70
2021/05/04 04:40:18;;;;;;;28.02;13.48;;;8.00;87.90;;;;;;4882060;29;20040;-70
2021/05/04 04:42:44;;;;;;;25.90;10.73;;;8.00;88.20;;;;;;4881799;29;20033;-70
2021/05/04 04:45:12;;;;;;;23.13;11.38;;;8.10;88.80;;;;;;4898064;29;20025;-70
2021/05/04 04:47:39;;;;;;;22.33;12.25;;;8.10;88.50;;;;;;4898525;29;20109;-70
2021/05/04 04:50:07;;;;;;;18.92;10.43;;;8.20;88.90;;;;;;4899426;29;20113;-70
2021/05/04 04:52:32;;;;;;;;;;;8.30;89.30;;;;;;4882301;29;20032;-70
2021/05/04 04:54:58;;;;;;;13.50;10.20;;;8.30;89.80;;;;;;4884018;29;20262;-68
2021/05/04 04:57:24;;;;;;;15.57;10.23;;;8.40;89.10;;;;;;4878139;29;20036;-70
2021/05/04 04:59:49;;;;;;;17.70;10.02;;;8.50;89.20;;;;;;4882116;29;20024;-70
2021/05/04 05:02:16;;;;;;;16.33;9.95;;;8.60;89.40;;;;;;4899671;29;20073;-70
2021/05/04 05:04:43;;;;;;;15.43;10.57;;;8.60;89.20;;;;;;4873963;29;20037;-67
2021/05/04 05:07:09;;;;;;;13.82;10.05;;;8.70;89.10;;;;;;4892749;29;20320;-67
2021/05/04 05:09:36;;;;;;;15.13;10.27;;;8.80;89.10;;;;;;4872548;29;20027;-68
2021/05/04 05:12:06;;;;;;;16.45;9.82;;;8.90;89.10;;;;;;4880779;29;20108;-67
2021/05/04 05:14:38;;;;;;;17.38;9.88;;;8.90;89.00;;;;;;4890482;29;20312;-67
2021/05/04 05:17:04;;;;;;;16.35;9.00;;;9.00;88.90;;;;;;4890381;29;20037;-68
2021/05/04 05:19:30;;;;;;;19.35;8.65;;;9.10;88.60;;;;;;4873596;29;20044;-67
2021/05/04 05:21:57;;;;;;;15.15;8.80;;;9.10;88.90;;;;;;4876176;29;20055;-68
2021/05/04 05:24:23;;;;;;;13.85;8.45;;;9.20;88.50;;;;;;4872332;29;20045;-68
2021/05/04 05:26:49;;;;;;;14.30;8.52;;;9.30;88.40;;;;;;4868228;29;20077;-69
2021/05/04 05:29:15;;;;;;;16.08;8.90;;;9.40;88.00;;;;;;4890037;29;20037;-70
2021/05/04 05:31:41;;;;;;;15.52;9.32;;;9.50;87.60;;;;;;4873611;29;20020;-68
2021/05/04 05:34:07;;;;;;;16.48;9.63;;;9.50;87.70;;;;;;4886924;29;20025;-70
2021/05/04 05:36:33;;;;;;;15.65;8.55;;;9.60;87.40;;;;;;4886538;29;20217;-69
2021/05/04 05:38:59;;;;;;;14.25;8.32;;;9.70;87.20;;;;;;4873440;29;20040;-71
2021/05/04 05:41:25;;;;;;;12.65;8.38;;;9.70;87.30;;;;;;4890164;29;20024;-71
2021/05/04 05:43:50;;;;;;;13.60;8.82;;;9.80;87.20;;;;;;4880217;29;20224;-71
2021/05/04 05:46:16;;;;;;;12.02;8.77;;;9.90;86.90;;;;;;4895356;29;20264;-71
2021/05/04 05:48:43;;;;;;;13.70;8.18;;;10.00;86.50;;;;;;4880170;29;20100;-71
2021/05/04 05:51:09;;;;;;;15.10;7.97;;;10.10;86.80;;;;;;4899750;29;20021;-71
2021/05/04 05:53:35;;;;;;;11.82;8.45;;;10.20;86.80;;;;;;4889738;29;20056;-71
2021/05/04 05:56:02;;;;;;;11.18;8.65;;;10.30;86.50;;;;;;4889736;29;20029;-68
2021/05/04 05:58:28;;;;;;;13.15;8.32;;;10.40;86.40;;;;;;4872756;29;20303;-69
2021/05/04 06:00:56;;;;;;;17.88;8.48;;;10.50;85.70;;;;;;4889499;29;20041;-71
2021/05/04 06:03:22;;;;;;;10.30;6.88;;;10.60;86.00;;;;;;4867769;29;20029;-70
2021/05/04 06:05:49;;;;;;;13.10;8.23;;;10.70;86.00;;;;;;4868894;29;20056;-68
2021/05/04 06:08:15;;;;;;;19.27;8.52;;;10.80;84.90;;;;;;4868819;29;20128;-68
2021/05/04 06:10:41;;;;;;;14.88;7.22;;;11.00;85.30;;;;;;4855023;29;20021;-68
2021/05/04 06:13:07;;;;;;;13.48;7.80;;;11.40;85.40;;;;;;4868844;29;20317;-68
2021/05/04 06:15:35;;;;;;;15.32;6.82;;;12.10;84.80;;;;;;4852975;29;20356;-69
2021/05/04 06:18:00;;;;;;;13.30;6.78;;;12.60;79.50;;;;;;4856563;29;20277;-69
2021/05/04 06:20:26;;;;;;;15.02;6.68;;;12.90;78.40;;;;;;4873598;29;20040;-68
2021/05/04 06:22:53;;;;;;;9.32;6.53;;;13.40;78.10;;;;;;4876821;29;20063;-69
2021/05/04 06:25:19;;;;;;;7.57;6.15;;;13.70;74.60;;;;;;4876719;29;20041;-69
2021/05/04 06:27:44;;;;;;;11.00;6.93;;;13.90;72.70;;;;;;4880493;29;20105;-69
2021/05/04 06:30:12;;;;;;;9.40;6.10;;;14.00;71.70;;;;;;4861004;29;20036;-69
2021/05/04 06:32:42;;;;;;;10.05;6.32;;;14.20;73.80;;;;;;4874910;29;20325;-69
2021/05/04 06:35:08;;;;;;;7.80;5.63;;;14.40;72.80;;;;;;4864534;29;20753;-68
2021/05/04 06:37:34;;;;;;;10.40;5.82;;;14.70;71.10;;;;;;4880166;29;20028;-69
2021/05/04 06:40:00;;;;;;;7.95;5.28;;;15.00;70.00;;;;;;4889234;29;20205;-69
2021/05/04 06:42:26;;;;;;;8.63;5.70;;;15.10;68.40;;;;;;4879508;29;20029;-69
2021/05/04 06:44:52;;;;;;;9.65;5.53;;;15.10;67.80;;;;;;4882778;29;20077;-69
2021/05/04 06:47:17;;;;;;;6.85;5.32;;;15.30;68.70;;;;;;4894721;29;20340;-68
2021/05/04 06:49:44;;;;;;;10.95;5.22;;;15.50;68.10;;;;;;4895942;29;20085;-69
2021/05/04 06:52:11;;;;;;;10.48;5.63;;;15.50;66.00;;;;;;4879367;29;20039;-69
2021/05/04 06:54:37;;;;;;;8.53;5.53;;;15.60;66.60;;;;;;4876811;29;20052;-69
2021/05/04 06:57:02;;;;;;;9.75;5.80;;;15.80;66.20;;;;;;4894878;29;20016;-69
2021/05/04 06:59:28;;;;;;;10.85;6.30;;;15.90;66.10;;;;;;4894455;29;20033;-69
2021/05/04 07:01:54;;;;;;;6.97;4.60;;;16.10;66.70;;;;;;4898791;29;20029;-69
2021/05/04 07:04:20;;;;;;;7.25;5.60;;;16.20;65.00;;;;;;4871425;29;20036;-70
2021/05/04 07:06:46;;;;;;;10.13;4.97;;;16.40;64.10;;;;;;4888603;29;20347;-67
2021/05/04 07:09:11;;;;;;;10.80;5.18;;;16.40;63.50;;;;;;4880924;29;20040;-67
2021/05/04 07:11:37;;;;;;;6.75;4.93;;;16.50;62.90;;;;;;4888639;29;20032;-67
2021/05/04 07:14:04;;;;;;;7.68;4.13;;;16.50;61.30;;;;;;4888517;29;20055;-67
2021/05/04 07:16:30;;;;;;;9.25;4.50;;;16.60;62.40;;;;;;4890227;29;20033;-67
2021/05/04 07:18:56;;;;;;;9.73;4.78;;;16.60;62.90;;;;;;4892348;29;20031;-67
2021/05/04 07:21:22;;;;;;;8.95;4.50;;;16.70;64.10;;;;;;4887782;29;20021;-67
2021/05/04 07:23:48;;;;;;;6.60;4.90;;;16.90;63.10;;;;;;4868492;29;20033;-67
2021/05/04 07:26:14;;;;;;;5.63;4.55;;;17.10;62.90;;;;;;4891567;29;20040;-67
2021/05/04 07:28:40;;;;;;;16.92;5.72;;;17.20;62.70;;;;;;4891582;29;20380;-67
2021/05/04 07:31:06;;;;;;;5.97;4.43;;;17.30;61.40;;;;;;4891241;29;20099;-67
2021/05/04 07:33:32;;;;;;;18.05;5.70;;;17.30;60.70;;;;;;4889684;29;20193;-70
2021/05/04 07:35:58;;;;;;;7.30;5.25;;;17.40;61.70;;;;;;4870110;29;20048;-68
2021/05/04 07:38:25;;;;;;;15.18;6.72;;;17.40;60.30;;;;;;4892378;29;20316;-67
2021/05/04 07:40:51;;;;;;;6.13;5.53;;;17.50;59.90;;;;;;4860103;29;20080;-67
2021/05/04 07:43:16;;;;;;;8.57;4.97;;;17.40;59.30;;;;;;4892147;29;20208;-68
2021/05/04 07:45:42;;;;;;;8.85;4.75;;;17.30;60.00;;;;;;4874536;29;20111;-69
2021/05/04 07:48:10;;;;;;;11.30;5.40;;;17.30;61.80;;;;;;4891725;29;20045;-67
2021/05/04 07:50:37;;;;;;;8.25;4.97;;;17.30;62.10;;;;;;4891613;29;20037;-67
2021/05/04 07:53:03;;;;;;;13.07;6.22;;;17.40;61.50;;;;;;4891293;29;20023;-67
2021/05/04 07:55:30;;;;;;;8.10;5.40;;;17.30;63.30;;;;;;4891351;29;20278;-68
2021/05/04 07:57:55;;;;;;;8.82;5.60;;;17.40;62.30;;;;;;4891931;29;20060;-68
2021/05/04 08:00:21;;;;;;;8.73;5.13;;;17.50;64.10;;;;;;4891782;29;20276;-68
2021/05/04 08:02:47;;;;;;;9.05;4.97;;;17.70;63.90;;;;;;4884298;29;20021;-68
2021/05/04 08:05:14;;;;;;;5.50;4.00;;;17.70;62.00;;;;;;4883485;29;20069;-67
2021/05/04 08:07:39;;;;;;;6.63;5.10;;;17.80;60.70;;;;;;4891349;29;20251;-70
2021/05/04 08:10:07;;;;;;;5.45;4.50;;;17.90;59.60;;;;;;4893052;29;20025;-67
2021/05/04 08:12:34;;;;;;;5.82;4.38;;;18.00;60.50;;;;;;4891163;29;20025;-68
2021/05/04 08:15:00;;;;;;;8.52;4.75;;;18.10;61.00;;;;;;4871128;29;20024;-68
2021/05/04 08:17:29;;;;;;;7.28;3.75;;;18.30;62.90;;;;;;4891295;29;20024;-68
2021/05/04 08:19:57;;;;;;;7.75;3.97;;;18.40;58.80;;;;;;4896194;29;20130;-67
2021/05/04 08:22:23;;;;;;;8.32;4.07;;;18.50;58.40;;;;;;4882199;29;20425;-68
2021/05/04 08:24:49;;;;;;;6.93;4.15;;;18.60;57.80;;;;;;4891235;29;20041;-68
2021/05/04 08:27:14;;;;;;;12.23;3.30;;;18.90;57.60;;;;;;4858876;29;20037;-68
2021/05/04 08:29:40;;;;;;;5.30;2.90;;;19.10;55.90;;;;;;4874598;29;20075;-68
2021/05/04 08:32:06;;;;;;;6.35;2.90;;;19.50;55.90;;;;;;4891035;29;20028;-68
2021/05/04 08:34:32;;;;;;;5.60;3.28;;;20.00;53.90;;;;;;4891107;29;20029;-68
2021/05/04 08:36:58;;;;;;;4.03;2.77;;;20.50;52.70;;;;;;4891185;29;20320;-68
2021/05/04 08:39:24;;;;;;;6.15;2.90;;;20.80;50.10;;;;;;4891085;29;20043;-68
2021/05/04 08:41:50;;;;;;;4.47;3.08;;;20.90;50.40;;;;;;4873756;29;20032;-68
2021/05/04 08:44:18;;;;;;;5.55;2.75;;;21.50;49.70;;;;;;4874379;29;20044;-68
2021/05/04 08:46:47;;;;;;;2.75;2.28;;;22.00;46.10;;;;;;4858669;29;20252;-68
2021/05/04 08:49:14;;;;;;;6.18;3.10;;;22.50;46.10;;;;;;4891149;29;20341;-68
2021/05/04 08:51:45;;;;;;;6.22;3.15;;;23.20;45.70;;;;;;4874460;29;20043;-68
2021/05/04 08:54:12;;;;;;;3.63;2.85;;;23.50;44.60;;;;;;4874149;29;20324;-68
2021/05/04 08:56:40;;;;;;;3.65;2.78;;;24.10;43.20;;;;;;4885845;29;20037;-68
2021/05/04 08:59:07;;;;;;;9.75;3.60;;;24.50;42.30;;;;;;4890651;29;20029;-68
2021/05/04 09:01:33;;;;;;;3.50;2.30;;;24.90;41.70;;;;;;4890866;29;20032;-68
2021/05/04 09:04:02;;;;;;;6.03;2.35;;;25.40;40.20;;;;;;4890381;29;20052;-68
2021/05/04 09:06:38;;;;;;;3.25;2.40;;;25.80;39.40;;;;;;4890440;29;20137;-68
2021/05/04 09:09:19;;;;;;;4.22;2.80;;;25.80;38.00;;;;;;4890569;29;20025;-68
2021/05/04 09:17:35;;;;;;;4.90;2.33;;;26.80;36.60;;;;;;4817252;29;20075;-66
2021/05/04 09:20:21;;;;;;;6.70;2.38;;;27.60;37.00;;;;;;4827486;29;20373;-67
2021/05/04 09:22:46;;;;;;;5.77;2.30;;;27.80;35.40;;;;;;4831016;29;20046;-67
2021/05/04 09:25:35;;;;;;;5.93;2.57;;;28.10;33.80;;;;;;4830669;29;20083;-68
2021/05/04 09:28:10;;;;;;;106.75;29.65;;;28.30;34.10;;;;;;4824354;29;20035;-68
2021/05/04 09:30:37;;;;;;;6.03;2.30;;;28.40;31.00;;;;;;4813863;29;20022;-68
2021/05/04 09:33:06;;;;;;;;;;;28.40;32.10;;;;;;4832336;29;20034;-68
2021/05/04 09:35:32;;;;;;;3.13;2.10;;;28.50;33.00;;;;;;4817585;29;19936;-68
2021/05/04 09:38:15;;;;;;;2.30;2.10;;;28.50;32.60;;;;;;4827004;29;20026;-68
2021/05/04 09:40:42;;;;;;;2.83;2.22;;;28.60;32.40;;;;;;4830150;29;20034;-68
2021/05/04 09:43:26;;;;;;;3.55;2.80;;;29.10;32.10;;;;;;4831260;29;20075;-65
2021/05/04 09:45:54;;;;;;;3.28;2.20;;;29.40;31.50;;;;;;4829061;29;20034;-66
2021/05/04 09:48:22;;;;;;;4.97;2.22;;;30.10;31.10;;;;;;4811989;29;20050;-68
2021/05/04 09:50:51;;;;;;;5.95;1.92;;;30.30;30.20;;;;;;4823232;29;20030;-68
2021/05/04 09:53:22;;;;;;;6.40;2.13;;;30.70;30.80;;;;;;4819755;29;20040;-68
2021/05/04 09:55:56;;;;;;;5.40;2.00;;;31.20;29.10;;;;;;4875972;29;20313;-68
2021/05/04 09:58:34;;;;;;;4.22;2.30;;;31.20;29.20;;;;;;4889674;29;20040;-68
2021/05/04 10:01:00;;;;;;;5.30;2.20;;;31.50;26.70;;;;;;4872999;29;20096;-67
2021/05/04 10:03:27;;;;;;;;;;;31.40;28.80;;;;;;4868432;29;20230;-67
2021/05/04 10:05:54;;;;;;;6.00;2.95;;;32.20;27.90;;;;;;4888656;29;19912;-69
2021/05/04 10:08:20;;;;;;;7.10;2.15;;;31.60;26.50;;;;;;4885939;29;20037;-69
2021/05/04 10:10:46;;;;;;;2.75;2.08;;;31.90;27.20;;;;;;4884736;29;20028;-69
2021/05/04 10:13:13;;;;;;;;;;;32.50;27.90;;;;;;4878171;29;20037;-69
2021/05/04 10:15:42;;;;;;;2.05;1.70;;;32.80;25.90;;;;;;4887983;29;19907;-69
2021/05/04 10:18:08;;;;;;;2.60;1.50;;;32.90;26.00;;;;;;4889121;29;20039;-68
2021/05/04 10:20:34;;;;;;;5.88;1.67;;;32.90;27.00;;;;;;4889267;29;20116;-69
2021/05/04 10:23:00;;;;;;;1.80;1.67;;;33.00;26.40;;;;;;4872663;29;20347;-69
2021/05/04 10:25:26;;;;;;;3.03;1.70;;;33.10;27.20;;;;;;4889111;29;20021;-68
2021/05/04 10:27:56;;;;;;;3.67;1.43;;;33.30;26.60;;;;;;4872495;29;20036;-69
2021/05/04 10:30:24;;;;;;;3.72;1.70;;;33.50;26.50;;;;;;4889127;29;20284;-68
2021/05/04 10:32:59;;;;;;;4.50;1.65;;;33.50;26.90;;;;;;4888781;29;20332;-68
2021/05/04 10:35:34;;;;;;;3.47;1.77;;;33.70;26.20;;;;;;4888934;29;20036;-69
2021/05/04 10:38:01;;;;;;;4.50;1.55;;;33.80;25.50;;;;;;4872304;29;20056;-69
2021/05/04 10:40:33;;;;;;;2.00;1.25;;;34.00;26.10;;;;;;4887734;29;20024;-68
2021/05/04 10:43:18;;;;;;;2.83;1.85;;;33.70;25.20;;;;;;4887396;29;20032;-69
2021/05/04 10:45:44;;;;;;;2.50;1.60;;;33.80;26.30;;;;;;4872675;29;20037;-69
2021/05/04 10:48:09;;;;;;;3.80;1.60;;;33.90;25.40;;;;;;4883759;29;20063;-69
2021/05/04 10:50:52;;;;;;;2.27;1.50;;;33.70;25.90;;;;;;4888799;29;20229;-69
2021/05/04 10:53:20;;;;;;;4.93;1.40;;;33.90;25.50;;;;;;4872302;29;20060;-69
2021/05/04 10:55:52;;;;;;;3.85;1.83;;;34.00;24.90;;;;;;4893455;29;20036;-69
2021/05/04 10:58:29;;;;;;;3.33;1.35;;;33.90;25.20;;;;;;4878807;29;20096;-69
2021/05/04 11:01:04;;;;;;;1.90;1.50;;;34.10;25.40;;;;;;4880028;29;20201;-68
2021/05/04 11:03:32;;;;;;;6.55;1.17;;;34.20;26.60;;;;;;4875388;29;20051;-69
2021/05/04 11:06:08;;;;;;;2.88;1.58;;;34.40;26.00;;;;;;4871878;29;20084;-69
2021/05/04 11:08:43;;;;;;;1.73;0.90;;;34.20;25.50;;;;;;4888430;29;20088;-68
2021/05/04 11:11:33;;;;;;;5.43;1.27;;;34.20;25.20;;;;;;4889852;29;20049;-68
2021/05/04 11:14:14;;;;;;;5.15;1.30;;;33.90;24.90;;;;;;4888657;29;20092;-68
2021/05/04 11:16:45;;;;;;;4.65;1.55;;;33.50;25.50;;;;;;4888614;29;20036;-68
2021/05/04 11:19:28;;;;;;;5.07;1.40;;;33.30;25.40;;;;;;4888522;29;20028;-68
2021/05/04 11:21:57;;;;;;;2.17;1.20;;;33.40;25.90;;;;;;4888411;29;20043;-68
2021/05/04 11:24:39;;;;;;;3.40;2.00;;;33.20;25.10;;;;;;4888185;29;20221;-69
2021/05/04 11:27:05;;;;;;;4.72;1.52;;;32.70;24.50;;;;;;4872109;29;20100;-67
2021/05/04 11:29:33;;;;;;;7.03;2.07;;;32.60;25.00;;;;;;4865095;29;20081;-67
2021/05/04 11:32:31;;;;;;;2.85;1.30;;;33.00;24.00;;;;;;4888126;29;20032;-68
2021/05/04 11:35:00;;;;;;;8.45;1.70;;;33.40;24.40;;;;;;4879994;29;20024;-68
2021/05/04 11:37:31;;;;;;;2.85;1.60;;;33.90;23.70;;;;;;4888083;29;20069;-67
2021/05/04 11:40:10;;;;;;;4.45;1.55;;;34.10;22.90;;;;;;4887920;29;20040;-67
2021/05/04 11:42:50;;;;;;;1.75;1.20;;;34.40;24.00;;;;;;4888111;29;20033;-68
2021/05/04 11:45:28;;;;;;;4.25;1.40;;;34.40;23.00;;;;;;4888515;29;20056;-68
2021/05/04 11:48:02;;;;;;;4.13;1.27;;;33.90;22.60;;;;;;4871387;29;20051;-69
2021/05/04 11:50:29;;;;;;;6.90;1.20;;;33.80;22.60;;;;;;4883052;29;20518;-68
2021/05/04 11:52:59;;;;;;;1.83;1.15;;;33.50;23.80;;;;;;4888251;29;20025;-68
2021/05/04 11:55:30;;;;;;;10.70;1.48;;;33.00;23.00;;;;;;4888138;29;20228;-68
2021/05/04 11:58:03;;;;;;;2.80;1.20;;;32.80;22.40;;;;;;4888119;29;20048;-68
2021/05/04 12:00:31;;;;;;;1.75;1.17;;;32.80;22.00;;;;;;4856266;29;20025;-69
2021/05/04 12:03:14;;;;;;;1.75;1.17;;;32.50;21.30;;;;;;4873379;29;20021;-69
2021/05/04 12:05:41;;;;;;;4.60;1.20;;;32.10;21.30;;;;;;4875081;29;20084;-68
2021/05/04 12:08:08;;;;;;;1.52;1.00;;;31.40;22.00;;;;;;4891528;29;20037;-68
2021/05/04 12:10:35;;;;;;;;;;;31.20;22.90;;;;;;4892944;29;20076;-68
2021/05/04 12:13:10;;;;;;;7.57;1.42;;;31.10;23.50;;;;;;4874642;29;19907;-69
2021/05/04 12:15:41;;;;;;;2.67;1.05;;;30.80;23.00;;;;;;4891458;29;20059;-68
2021/05/04 12:18:13;;;;;;;4.82;1.65;;;30.40;23.70;;;;;;4891161;29;20088;-68
2021/05/04 12:20:48;;;;;;;3.55;1.10;;;30.30;24.50;;;;;;4874934;29;20081;-68
2021/05/04 12:23:24;;;;;;;6.90;1.30;;;29.80;23.40;;;;;;4884988;29;20025;-67
2021/05/04 12:25:54;;;;;;;3.80;1.42;;;29.60;24.10;;;;;;4891080;29;20033;-67
2021/05/04 12:28:22;;;;;;;3.53;1.20;;;29.30;24.70;;;;;;4891010;29;20029;-67
2021/05/04 12:30:51;;;;;;;4.15;1.38;;;28.70;25.00;;;;;;4890929;29;20028;-68
2021/05/04 12:33:19;;;;;;;3.45;1.45;;;28.20;25.60;;;;;;4888818;29;20017;-68
2021/05/04 12:35:56;;;;;;;3.65;1.38;;;28.00;24.60;;;;;;4869533;29;20033;-68
2021/05/04 12:38:31;;;;;;;4.93;1.58;;;27.70;25.70;;;;;;4890238;29;20093;-68
2021/05/04 12:41:10;;;;;;;4.03;1.13;;;27.60;25.90;;;;;;4891022;29;20082;-67
2021/05/04 12:43:41;;;;;;;2.65;1.27;;;27.40;26.20;;;;;;4873823;29;20041;-67
2021/05/04 12:46:10;;;;;;;4.13;1.35;;;27.30;25.00;;;;;;4890797;29;20052;-68
2021/05/04 12:48:38;;;;;;;5.43;1.33;;;27.20;24.80;;;;;;4890378;29;20092;-68
2021/05/04 12:51:08;;;;;;;4.47;1.13;;;27.00;26.00;;;;;;4890688;29;20029;-67
2021/05/04 12:53:38;;;;;;;5.35;1.20;;;26.90;25.40;;;;;;4876587;29;20021;-67
2021/05/04 12:56:11;;;;;;;3.65;1.25;;;26.70;27.10;;;;;;4889953;29;20053;-68
2021/05/04 12:58:57;;;;;;;4.35;1.27;;;26.60;26.30;;;;;;4890320;29;20052;-67
2021/05/04 13:01:38;;;;;;;2.92;1.40;;;26.50;27.30;;;;;;4890580;29;20123;-67
2021/05/04 13:04:22;;;;;;;4.70;0.95;;;26.40;26.40;;;;;;4888648;29;20120;-68
2021/05/04 13:06:53;;;;;;;7.75;1.20;;;26.50;26.90;;;;;;4857618;29;20041;-68
2021/05/04 13:30:46;;;;;;;3.88;1.80;;;26.40;28.60;;;;;;4890093;29;20237;-68
2021/05/04 13:33:14;;;;;;;2.78;1.70;;;26.30;29.30;;;;;;4873427;29;20036;-68
2021/05/04 13:36:04;;;;;;;3.13;1.40;;;26.30;29.20;;;;;;4890044;29;20029;-67
2021/05/04 13:49:14;;;;;;;3.25;1.33;;;25.90;28.00;;;;;;4888960;29;20048;-67
2021/05/04 13:51:40;;;;;;;5.45;1.63;;;25.80;28.20;;;;;;4889693;29;20024;-67
2021/05/04 13:54:07;;;;;;;4.93;1.47;;;25.70;28.80;;;;;;4889198;29;20032;-68
2021/05/04 13:56:33;;;;;;;;;;;25.80;29.70;;;;;;4873040;29;20065;-67
2021/05/04 13:58:59;;;;;;;3.17;1.30;;;26.00;29.10;;;;;;4887174;29;20114;-68
2021/05/04 14:01:38;;;;;;;6.40;1.60;;;25.90;28.70;;;;;;4873172;29;20292;-67
2021/05/04 14:27:47;;;;;;;5.78;1.23;;;25.70;30.00;;;;;;4887442;29;20033;-69
2021/05/04 14:30:15;;;;;;;8.20;1.42;;;25.50;30.10;;;;;;4888855;29;20032;-69
2021/05/04 14:32:41;;;;;;;4.75;1.40;;;25.50;30.60;;;;;;4885677;29;20028;-69
2021/05/04 14:35:11;;;;;;;3.15;1.33;;;25.40;30.30;;;;;;4886074;29;20025;-68
2021/05/04 14:46:00;;;;;;;4.25;1.23;;;25.10;30.70;;;;;;4888100;29;20074;-69
2021/05/04 15:02:15;;;;;;;4.65;1.30;;;24.40;29.90;;;;;;4784442;29;20048;-70
2021/05/04 15:04:44;;;;;;;3.83;1.63;;;24.40;30.10;;;;;;4789098;29;20139;-71
2021/05/04 15:07:10;;;;;;;2.08;1.38;;;24.30;29.90;;;;;;4794033;29;20110;-70
2021/05/04 15:09:36;;;;;;;5.90;1.40;;;24.30;29.40;;;;;;4799364;29;20134;-71
2021/05/04 15:12:05;;;;;;;2.47;1.38;;;24.30;29.80;;;;;;4787182;30;20035;-70
2021/05/04 15:17:06;;;;;;;7.80;1.33;;;24.20;32.10;;;;;;4793271;29;20039;-73
2021/05/04 15:22:16;;;;;;;3.17;1.20;;;24.20;33.60;;;;;;4782038;30;20078;-70
2021/05/04 15:24:42;;;;;;;5.88;2.13;;;24.40;35.80;;;;;;4791390;29;20137;-69
2021/05/04 15:27:10;;;;;;;3.40;1.48;;;24.40;36.00;;;;;;4794741;29;20035;-70
2021/05/04 15:29:40;;;;;;;7.28;1.33;;;24.30;33.10;;;;;;4792099;30;20069;-70
2021/05/04 15:32:22;;;;;;;2.00;1.40;;;24.50;33.10;;;;;;4792909;30;20035;-70
2021/05/04 15:34:48;;;;;;;2.15;1.13;;;24.80;32.70;;;;;;4794736;30;20038;-70
2021/05/04 15:37:14;;;;;;;3.17;1.40;;;24.90;34.10;;;;;;4796344;29;20038;-70
2021/05/04 15:39:40;;;;;;;3.28;1.40;;;24.70;32.00;;;;;;4858163;29;20369;-70
2021/05/04 15:42:08;;;;;;;7.15;1.23;;;24.60;32.50;;;;;;4873588;29;20029;-70
2021/05/04 15:44:35;;;;;;;5.07;1.65;;;24.60;31.40;;;;;;4873236;29;20052;-69
2021/05/04 15:49:57;;;;;;;1.95;1.33;;;24.70;30.90;;;;;;4870423;29;20248;-70
2021/05/04 15:52:42;;;;;;;6.78;1.52;;;24.80;31.40;;;;;;4889537;29;20071;-70
2021/05/04 16:03:27;;;;;;;2.60;1.05;;;24.40;30.60;;;;;;4865153;29;20274;-70
2021/05/04 16:08:27;;;;;;;1.80;0.93;;;24.20;31.70;;;;;;4870985;29;20045;-70
2021/05/04 16:10:53;;;;;;;7.60;1.33;;;24.00;31.20;;;;;;4856078;29;20245;-70
2021/05/04 16:13:20;;;;;;;2.30;0.95;;;23.90;31.40;;;;;;4870952;29;20041;-70
2021/05/04 16:15:46;;;;;;;2.33;1.10;;;23.90;33.20;;;;;;4870912;29;20052;-70
2021/05/04 16:18:11;;;;;;;2.42;1.10;;;24.00;33.70;;;;;;4855056;29;20038;-69
2021/05/04 16:30:59;;;;;;;4.78;1.45;;;23.70;32.60;;;;;;4869731;29;20356;-70
2021/05/04 16:33:25;;;;;;;5.07;1.27;;;23.60;33.70;;;;;;4836491;29;20033;-70
2021/05/04 16:35:51;;;;;;;3.67;1.20;;;23.50;33.50;;;;;;4869678;29;20033;-70
2021/05/04 16:38:17;;;;;;;4.35;1.60;;;23.40;33.60;;;;;;4887248;29;20041;-70
2021/05/04 16:40:42;;;;;;;3.00;1.60;;;23.40;34.80;;;;;;4890573;29;20355;-70
2021/05/04 16:43:08;;;;;;;4.88;1.33;;;23.30;34.90;;;;;;4890385;29;20051;-69
2021/05/04 16:45:37;;;;;;;2.47;1.02;;;23.30;34.10;;;;;;4888940;29;20021;-70
2021/05/04 16:48:05;;;;;;;2.47;1.20;;;23.10;34.50;;;;;;4888883;29;20061;-69
2021/05/04 16:50:32;;;;;;;3.25;1.42;;;23.00;34.60;;;;;;4873347;29;20016;-70
2021/05/04 16:52:58;;;;;;;5.25;1.45;;;23.10;35.70;;;;;;4889023;29;20036;-70
2021/05/04 16:55:23;;;;;;;2.38;1.27;;;23.00;34.60;;;;;;4872483;29;20072;-70
2021/05/04 16:57:49;;;;;;;5.00;1.65;;;22.90;35.10;;;;;;4874436;29;20021;-70
2021/05/04 17:00:18;;;;;;;2.35;1.40;;;22.90;35.80;;;;;;4879267;29;20029;-70
2021/05/04 17:02:43;;;;;;;2.75;1.70;;;22.80;35.80;;;;;;4889340;29;20025;-69
2021/05/04 17:05:11;;;;;;;3.15;1.67;;;22.70;35.60;;;;;;4887402;29;20028;-70
2021/05/04 17:07:43;;;;;;;4.07;1.40;;;22.70;36.00;;;;;;4886785;29;20152;-70
2021/05/04 17:12:35;;;;;;;4.50;1.42;;;22.50;36.60;;;;;;4878417;29;20037;-70
2021/05/04 17:15:01;;;;;;;1.75;1.10;;;22.40;36.50;;;;;;4887249;29;20065;-70
2021/05/04 17:17:27;;;;;;;2.17;1.00;;;22.30;36.80;;;;;;4889009;29;20028;-70
2021/05/04 17:19:52;;;;;;;2.70;1.15;;;22.20;36.80;;;;;;4887086;29;20047;-70
2021/05/04 17:22:18;;;;;;;2.97;1.15;;;22.10;37.50;;;;;;4887359;29;20032;-70
2021/05/04 17:24:44;;;;;;;3.03;1.35;;;22.10;38.20;;;;;;4885435;29;20029;-69
2021/05/04 17:27:10;;;;;;;1.77;1.25;;;22.00;38.40;;;;;;4888878;29;20052;-69
2021/05/04 17:29:35;;;;;;;1.40;1.15;;;21.90;37.50;;;;;;4879364;29;20028;-70
2021/05/04 17:32:01;;;;;;;5.15;1.70;;;21.90;39.00;;;;;;4855333;29;20316;-70
2021/05/04 17:34:27;;;;;;;6.82;1.52;;;21.80;37.60;;;;;;4889227;29;20332;-70